首页
METAR-TAF:

METAR-TAF

机场 :

Saginaw, 密歇根州, 美国

纬度: 43-31-58N, 经度: 084-04-46W, 海拔: 204米

当前天气观测

该预报发布于38分钟前的17:53 UTC
风速10节,风向东北
温度 6°C
湿度 75%
气压 1010 hPa
能見度: 12.9公里
阴天层高于700英尺

METAR: KMBS 281753Z 05010KT 8SM OVC007 06/02 A2983 RMK AO2 SLP106 60016 T00610017 10072 20050 55007

时间: 14:31 (18:31 UTC)

预报

该预报发布于1小时和11分钟前的17:20 UTC
预报有效从28日的 18点(UTC)到 29日的 18点(UTC)
风速12节,风向东转东北
能見度: 9.7公里
阴天层高于800英尺
轻雾
从 29日的 0200点(UTC)
风速14节,风向
能見度: 9.7公里
阴天层高于600英尺
小阵雨, 轻雾
短暂存在
从 29日的 06点(UTC)到 29日的 09点(UTC)
能見度: 3.2公里
阴天层高于400英尺, 积雨云.
雷暴, 雨, 轻雾
从 29日的 1100点(UTC)
风速10节,风向南转南东
能見度: 10公里
阴天层高于600英尺
从 29日的 1500点(UTC)
风速16节,风向西南,有时为26节阵风
能見度: 10公里
散云层高于2500英尺
阴天层高于4000英尺
从 29日的 1700点(UTC)
风速18节,风向西转西南,有时为32节阵风
能見度: 10公里
阴天层高于2800英尺
小阵雨

TAF: KMBS 281720Z 2818/2918 06012KT 6SM BR OVC008 FM290200 08014KT 6SM -SHRA BR OVC006 TEMPO 2906/2909 2SM TSRA BR OVC004CB FM291100 16010KT P6SM OVC006 FM291500 22016G26KT P6SM SCT025 OVC040 FM291700 24018G32KT P6SM -SHRA OVC028

超过4000个机场的气象观测和天气预报(METAR&TAF报告)。

可查询的气象台以黄色和红色小点在地图上表示。

将鼠标移到小点上方,可查看气象台名称。

然后点击查看天气观测和预报。

如需切换地图:点击带黑十字的绿色按钮放大地图;点击带横线的绿色按钮缩小地图;或者点击绿色箭头查看邻近地区的地图。


METAR-TAF: